CDT,Max TemperatureF,Mean TemperatureF,Min TemperatureF,Max Dew PointF,MeanDew PointF,Min DewpointF,Max Humidity, Mean Humidity, Min Humidity, Max Sea Level PressureIn, Mean Sea Level PressureIn, Min Sea Level PressureIn, Max VisibilityMiles, Mean VisibilityMiles, Min VisibilityMiles, Max Wind SpeedMPH, Mean Wind SpeedMPH, Max Gust SpeedMPH,PrecipitationIn, CloudCover, Events, WindDirDegrees
2013-5-1,47,42,31,37,33,27,94,88,36,30.56,30.27,29.91,10,4,0,29,21,38,0.00,8,Rain-Snow,16
2013-5-2,52,40,28,31,26,16,96,67,25,30.66,30.58,30.44,10,9,2,14,7,22,0.00,4,Snow,316
2013-5-3,61,44,27,30,24,15,90,52,17,30.44,30.23,30.09,10,10,10,15,7,23,0.00,0,,336
2013-5-4,63,45,28,27,16,0,83,41,9,30.22,30.15,30.10,10,10,10,22,6,29,0.00,0,,8
2013-5-5,65,46,27,31,22,16,81,44,15,30.25,30.19,30.11,10,10,10,10,5,,0.00,0,,31
2013-5-6,75,56,36,39,27,20,71,37,14,30.14,30.06,29.95,10,10,10,22,10,32,0.00,1,,159
2013-5-7,76,63,50,51,44,36,88,56,24,30.00,29.91,29.83,10,10,10,17,10,23,0.00,5,Rain,119
2013-5-8,78,64,49,52,47,36,93,68,22,30.00,29.95,29.88,10,9,0,29,6,36,0.00,3,Fog-Rain,338
2013-5-9,66,56,46,53,47,42,90,72,45,30.17,30.09,29.99,10,10,5,18,9,25,0.00,4,Rain,20
2013-5-10,72,56,42,50,43,37,94,68,29,30.19,30.16,30.12,10,8,1,16,6,25,0.00,3,Rain,243
2013-5-11,68,58,47,47,36,27,87,50,23,30.40,30.30,30.19,10,10,10,14,8,18,0.00,2,,15
2013-5-12,84,64,45,47,38,26,89,47,13,30.26,30.12,30.05,10,10,10,17,9,23,0.00,0,,163
2013-5-13,93,72,52,45,36,22,71,34,8,30.08,30.03,29.97,10,10,5,16,9,17,0.00,0,,221
2013-5-14,98,76,56,47,36,22,68,30,7,29.97,29.87,29.77,10,10,10,25,8,37,0.00,1,Rain,231
2013-5-15,86,72,59,51,41,34,62,34,17,29.92,29.86,29.80,10,10,7,18,7,26,0.00,0,,56
2013-5-16,87,73,59,56,50,34,78,53,15,29.88,29.83,29.76,10,10,5,28,9,33,0.00,2,Rain,189
2013-5-17,88,74,59,63,56,48,87,59,25,29.90,29.84,29.74,10,10,7,26,14,33,0.00,0,Rain,170
2013-5-18,86,72,59,63,57,45,94,62,24,29.81,29.74,29.62,10,8,1,24,13,32,0.00,1,,99
2013-5-19,70,62,53,53,48,39,82,61,39,29.79,29.74,29.68,10,10,7,24,13,36,0.00,3,Rain,321
2013-5-20,70,60,51,49,44,37,86,59,30,29.92,29.83,29.77,10,10,10,31,15,41,0.00,4,Rain,298
2013-5-21,72,60,49,44,38,30,74,48,22,29.95,29.90,29.84,10,10,10,30,17,43,0.00,2,,326
2013-5-22,76,58,40,47,42,38,92,59,27,30.05,29.95,29.91,10,10,5,14,6,17,0.00,0,,340
2013-5-23,73,60,49,52,48,46,90,68,40,30.19,30.13,30.06,10,10,7,25,12,39,0.00,6,Rain,94
2013-5-24,90,74,57,56,53,45,90,58,23,30.12,29.98,29.81,10,9,3,34,23,45,0.00,4,Rain,151
2013-5-25,94,80,65,57,49,40,57,38,16,30.00,29.89,29.80,10,10,7,25,18,34,0.00,1,,154
2013-5-26,91,76,61,58,51,41,81,45,18,29.86,29.81,29.75,10,10,10,23,13,26,0.00,0,,98
2013-5-27,85,70,55,63,56,32,91,65,15,29.78,29.73,29.65,10,10,7,18,8,32,0.00,2,,37
2013-5-28,88,70,51,62,51,41,85,58,19,29.83,29.70,29.55,10,10,10,24,9,31,0.00,1,,108
2013-5-29,81,66,53,63,54,41,92,66,33,29.66,29.54,29.43,10,10,1,31,14,62,0.00,3,Rain,19
2013-5-30,80,64,49,51,41,23,92,56,12,29.77,29.66,29.61,10,10,10,21,7,34,0.00,1,,237
2013-5-31,81,64,46,48,29,6,80,39,6,29.96,29.82,29.77,10,10,10,29,12,39,0.00,0,,279